Time;durP1;ratioP1;P1;durP2;ratioP2;P2;SDS_P1;SDS_P2;PMS_P1;PMS_P2;Temp;Humidity;BMP_temperature;BMP_pressure;BME280_temperature;BME280_humidity;BME280_pressure;Samples;Min_cycle;Max_cycle;Signal;HPM_P1;HPM_P2
2021/12/07 00:01:44;;;;;;;87.03;32.35;;;9.20;93.50;;;;;;5055727;28;20021;-33
2021/12/07 00:04:11;;;;;;;99.97;33.42;;;9.20;93.50;;;;;;5055715;28;20036;-34
2021/12/07 00:06:38;;;;;;;86.05;32.47;;;9.20;93.50;;;;;;5055626;28;20041;-45
2021/12/07 00:09:06;;;;;;;86.63;33.17;;;9.20;93.70;;;;;;5055895;28;20044;-35
2021/12/07 00:11:33;;;;;;;103.43;36.35;;;9.20;93.50;;;;;;5055508;28;20029;-44
2021/12/07 00:13:59;;;;;;;91.43;36.42;;;9.20;93.50;;;;;;5055925;28;20430;-35
2021/12/07 00:16:26;;;;;;;94.47;38.50;;;9.20;93.40;;;;;;5055866;28;20021;-33
2021/12/07 00:18:54;;;;;;;142.55;45.83;;;9.20;93.50;;;;;;5055734;28;20481;-45
2021/12/07 00:21:20;;;;;;;125.60;43.80;;;9.20;93.50;;;;;;5055531;28;20025;-33
2021/12/07 00:23:48;;;;;;;105.78;44.47;;;9.30;93.50;;;;;;5055411;28;20329;-33
2021/12/07 00:26:14;;;;;;;118.88;46.70;;;9.30;93.60;;;;;;5054398;28;20457;-33
2021/12/07 00:28:42;;;;;;;123.90;51.72;;;9.30;93.60;;;;;;5055593;28;20317;-45
2021/12/07 00:31:36;;;;;;;127.47;55.08;;;9.30;93.60;;;;;;5055244;28;20037;-34
2021/12/07 00:34:16;;;;;;;128.60;61.13;;;9.30;93.60;;;;;;5055157;28;20048;-33
2021/12/07 00:36:46;;;;;;;128.68;62.45;;;9.30;93.60;;;;;;5055746;28;20336;-46
2021/12/07 00:39:14;;;;;;;120.82;57.45;;;9.30;93.80;;;;;;5055669;28;20428;-34
2021/12/07 00:41:40;;;;;;;130.35;36.65;;;9.40;93.60;;;;;;5055268;28;20022;-45
2021/12/07 00:44:07;;;;;;;67.20;33.22;;;9.40;93.20;;;;;;5055527;28;20108;-45
2021/12/07 00:46:33;;;;;;;71.43;32.35;;;9.40;92.90;;;;;;5055334;28;20029;-45
2021/12/07 00:48:59;;;;;;;87.32;38.50;;;9.40;92.70;;;;;;5054982;28;20021;-45
2021/12/07 00:51:25;;;;;;;78.35;38.45;;;9.30;92.60;;;;;;5055224;28;20033;-33
2021/12/07 00:53:51;;;;;;;77.38;40.13;;;9.30;92.40;;;;;;5055527;28;20117;-35
2021/12/07 00:56:17;;;;;;;132.35;56.33;;;9.30;92.30;;;;;;5055252;28;20120;-45
2021/12/07 00:58:42;;;;;;;88.60;45.90;;;9.30;92.30;;;;;;5058473;28;20032;-33
2021/12/07 01:01:12;;;;;;;77.47;44.85;;;9.30;92.40;;;;;;5058857;28;20385;-45
2021/12/07 01:03:39;;;;;;;74.93;42.42;;;9.30;92.50;;;;;;5058669;28;20400;-45
2021/12/07 01:06:19;;;;;;;74.78;42.45;;;9.30;92.60;;;;;;5059138;28;20063;-45
2021/12/07 01:09:09;;;;;;;80.23;48.07;;;9.30;92.70;;;;;;5058646;28;20064;-45
2021/12/07 01:25:27;;;;;;;88.90;58.63;;;9.40;93.50;;;;;;5058943;28;20435;-45
2021/12/07 01:27:56;;;;;;;111.68;66.47;;;9.40;93.60;;;;;;5058569;28;20409;-33
2021/12/07 01:30:36;;;;;;;98.85;63.88;;;9.40;93.70;;;;;;5058462;28;20417;-45
2021/12/07 01:51:44;;;;;;;56.28;29.70;;;9.60;93.50;;;;;;5057788;28;19927;-44
2021/12/07 02:09:37;;;;;;;69.18;33.08;;;9.70;93.80;;;;;;5057509;28;20036;-34
2021/12/07 02:12:06;;;;;;;90.28;45.33;;;9.70;93.80;;;;;;5057781;28;20322;-44
2021/12/07 02:14:32;;;;;;;104.85;52.50;;;9.80;93.90;;;;;;5057555;28;20364;-45
2021/12/07 02:17:09;;;;;;;130.35;63.35;;;9.70;94.00;;;;;;5057657;28;20027;-34
2021/12/07 02:19:35;;;;;;;120.55;61.78;;;9.80;94.00;;;;;;5057347;28;20130;-45
2021/12/07 02:22:02;;;;;;;124.65;62.47;;;9.80;94.00;;;;;;5057410;28;20021;-44
2021/12/07 02:24:29;;;;;;;135.75;64.07;;;9.80;93.90;;;;;;5057509;28;20037;-43
2021/12/07 02:26:55;;;;;;;116.03;55.50;;;9.80;93.80;;;;;;5057530;28;20083;-45
2021/12/07 02:29:21;;;;;;;130.80;56.85;;;9.90;93.80;;;;;;5057127;28;20243;-33
2021/12/07 02:31:48;;;;;;;128.88;53.40;;;9.90;93.70;;;;;;5056952;28;20116;-34
2021/12/07 02:34:14;;;;;;;123.10;54.55;;;9.90;93.60;;;;;;5057108;28;20100;-32
2021/12/07 02:36:40;;;;;;;108.88;49.28;;;9.90;93.60;;;;;;5056949;28;20392;-33
2021/12/07 02:39:11;;;;;;;106.10;48.15;;;9.90;93.60;;;;;;5056966;28;20368;-34
2021/12/07 02:41:37;;;;;;;;;;;9.90;93.50;;;;;;5057707;28;20136;-34
2021/12/07 02:44:07;;;;;;;86.18;41.53;;;9.90;93.30;;;;;;5057042;28;19964;-45
2021/12/07 02:46:42;;;;;;;103.82;47.45;;;9.90;93.40;;;;;;5057150;28;20115;-45
2021/12/07 02:49:08;;;;;;;86.88;41.65;;;9.90;93.40;;;;;;5056623;28;20049;-45
2021/12/07 02:51:34;;;;;;;97.80;44.90;;;9.90;93.50;;;;;;5056937;28;20075;-45
2021/12/07 02:54:01;;;;;;;122.10;49.30;;;9.90;93.30;;;;;;5056707;28;20096;-33
2021/12/07 02:56:27;;;;;;;130.98;53.50;;;9.90;93.30;;;;;;5056596;28;20040;-33
2021/12/07 02:58:58;;;;;;;374.85;69.55;;;9.90;93.30;;;;;;5056838;28;20375;-36
2021/12/07 03:01:30;;;;;;;184.70;48.13;;;9.90;93.20;;;;;;5056829;28;20029;-45
2021/12/07 03:28:40;;;;;;;275.27;51.22;;;9.70;92.90;;;;;;5056475;28;20060;-34
2021/12/07 03:31:06;;;;;;;174.73;39.88;;;9.70;92.70;;;;;;5056460;28;20033;-46
2021/12/07 03:33:32;;;;;;;104.28;38.90;;;9.70;92.70;;;;;;5056222;28;20021;-33
2021/12/07 03:35:59;;;;;;;68.68;31.70;;;9.70;92.80;;;;;;5056434;28;20064;-33
2021/12/07 03:38:25;;;;;;;171.75;39.60;;;9.70;93.00;;;;;;5056017;28;20108;-46
2021/12/07 03:40:51;;;;;;;172.13;38.28;;;9.70;92.90;;;;;;5056389;28;20421;-35
2021/12/07 03:43:16;;;;;;;74.47;33.90;;;9.70;92.90;;;;;;5055901;28;20028;-33
2021/12/07 03:45:43;;;;;;;71.63;32.50;;;9.70;92.90;;;;;;5056118;28;20317;-45
2021/12/07 03:48:10;;;;;;;69.80;30.58;;;9.70;93.00;;;;;;5056004;28;20040;-33
2021/12/07 03:50:36;;;;;;;173.25;38.97;;;9.70;93.10;;;;;;5055495;28;20143;-34
2021/12/07 03:53:03;;;;;;;120.15;34.33;;;9.70;93.10;;;;;;5056112;28;20074;-45
2021/12/07 03:55:29;;;;;;;64.28;28.25;;;9.70;93.10;;;;;;5056037;28;20029;-33
2021/12/07 03:57:55;;;;;;;80.72;30.80;;;9.70;92.90;;;;;;5055782;28;20160;-45
2021/12/07 04:00:24;;;;;;;218.63;43.65;;;9.70;92.90;;;;;;5056040;28;20292;-46
2021/12/07 04:02:53;;;;;;;100.90;33.67;;;9.70;93.00;;;;;;5056095;28;20320;-33
2021/12/07 04:05:19;;;;;;;102.90;33.03;;;9.70;93.10;;;;;;5055926;28;20036;-33
2021/12/07 04:07:46;;;;;;;461.10;65.93;;;9.70;93.20;;;;;;5055609;28;20037;-42
2021/12/07 04:10:15;;;;;;;135.23;34.22;;;9.70;93.00;;;;;;5055780;28;20025;-33
2021/12/07 04:12:41;;;;;;;68.63;24.95;;;9.70;92.90;;;;;;5055901;28;20029;-33
2021/12/07 04:15:10;;;;;;;63.50;27.95;;;9.70;92.90;;;;;;5055859;28;20325;-33
2021/12/07 04:17:35;;;;;;;163.43;34.78;;;9.70;93.00;;;;;;5055608;28;20325;-34
2021/12/07 04:20:06;;;;;;;80.25;31.23;;;9.70;93.10;;;;;;5055829;28;20430;-46
2021/12/07 04:22:32;;;;;;;195.43;33.80;;;9.70;93.10;;;;;;5055476;28;20040;-45
2021/12/07 04:24:58;;;;;;;69.38;28.00;;;9.70;93.00;;;;;;5055714;28;20041;-46
2021/12/07 04:27:23;;;;;;;258.92;44.78;;;9.70;93.00;;;;;;5055752;28;20413;-45
2021/12/07 04:29:49;;;;;;;163.05;35.67;;;9.70;93.00;;;;;;5055574;28;20286;-46
2021/12/07 04:32:15;;;;;;;140.15;39.22;;;9.80;93.00;;;;;;5056359;28;20029;-45
2021/12/07 04:34:40;;;;;;;180.30;42.70;;;9.70;93.00;;;;;;5059236;28;20033;-34
2021/12/07 04:37:06;;;;;;;67.10;31.65;;;9.80;93.00;;;;;;5059581;28;20029;-45
2021/12/07 04:39:32;;;;;;;93.97;30.15;;;9.80;93.00;;;;;;5059385;28;20316;-35
2021/12/07 04:41:58;;;;;;;85.15;30.70;;;9.80;93.00;;;;;;5059207;28;20183;-45
2021/12/07 04:44:24;;;;;;;186.38;42.75;;;9.80;93.10;;;;;;5059105;28;20029;-32
2021/12/07 05:00:24;;;;;;;150.10;40.83;;;9.80;93.00;;;;;;5046674;28;20045;-34
2021/12/07 05:02:58;;;;;;;123.03;36.78;;;9.80;93.00;;;;;;5058751;28;20033;-45
2021/12/07 05:05:30;;;;;;;139.20;40.83;;;9.80;93.10;;;;;;5059013;28;20330;-45
2021/12/07 05:07:59;;;;;;;72.63;28.55;;;9.80;93.20;;;;;;5058844;28;20028;-45
2021/12/07 05:10:30;;;;;;;186.93;46.00;;;9.80;93.20;;;;;;5058866;28;20037;-33
2021/12/07 05:18:04;;;;;;;76.28;27.00;;;9.80;93.30;;;;;;5058783;28;20028;-32
2021/12/07 05:34:35;;;;;;;102.68;34.38;;;9.80;93.30;;;;;;5059021;28;20083;-45
2021/12/07 05:39:51;;;;;;;74.35;35.35;;;9.90;93.40;;;;;;5058189;28;20424;-34
2021/12/07 05:42:17;;;;;;;85.05;39.42;;;9.90;93.40;;;;;;5057756;28;20044;-45
2021/12/07 05:44:43;;;;;;;79.70;38.60;;;9.90;93.50;;;;;;5057416;28;20406;-37
2021/12/07 05:47:09;;;;;;;207.70;54.50;;;9.90;93.60;;;;;;5057866;28;20071;-34
2021/12/07 05:49:35;;;;;;;83.75;38.35;;;9.90;93.60;;;;;;5057418;28;20052;-32
2021/12/07 05:52:01;;;;;;;108.22;44.22;;;9.90;93.60;;;;;;5057683;28;20325;-34
2021/12/07 05:54:27;;;;;;;67.18;33.10;;;9.90;93.70;;;;;;5057915;28;20033;-45
2021/12/07 05:56:53;;;;;;;88.85;37.35;;;10.00;93.70;;;;;;5057633;28;20436;-33
2021/12/07 05:59:19;;;;;;;74.15;32.47;;;10.00;93.70;;;;;;5057678;28;20031;-45
2021/12/07 06:01:44;;;;;;;84.00;34.22;;;10.00;93.70;;;;;;5057416;28;20033;-45
2021/12/07 06:04:10;;;;;;;59.33;30.27;;;10.00;93.60;;;;;;5053151;28;20029;-45
2021/12/07 06:06:36;;;;;;;88.50;34.72;;;10.00;93.70;;;;;;5046432;28;20124;-45
2021/12/07 06:09:03;;;;;;;88.07;35.88;;;10.10;93.70;;;;;;5037418;28;20029;-45
2021/12/07 06:11:29;;;;;;;73.47;33.08;;;10.10;93.80;;;;;;5037351;28;20033;-45
2021/12/07 06:13:54;;;;;;;86.80;40.10;;;10.10;93.70;;;;;;5037172;28;20029;-32
2021/12/07 06:16:20;;;;;;;74.38;37.65;;;10.10;93.70;;;;;;5037237;28;20014;-33
2021/12/07 06:18:46;;;;;;;81.72;37.70;;;10.10;93.70;;;;;;5037437;28;20300;-45
2021/12/07 06:21:13;;;;;;;127.47;47.20;;;10.10;93.70;;;;;;5037242;28;20032;-32
2021/12/07 06:23:39;;;;;;;87.05;40.90;;;10.20;93.70;;;;;;5037190;28;20037;-33
2021/12/07 06:26:05;;;;;;;103.15;49.75;;;10.20;93.70;;;;;;5037555;28;20038;-36
2021/12/07 06:28:31;;;;;;;103.38;52.08;;;10.20;93.70;;;;;;5036926;28;20032;-38
2021/12/07 06:30:57;;;;;;;103.15;49.40;;;10.20;93.70;;;;;;5037476;28;20329;-45
2021/12/07 06:33:25;;;;;;;98.57;51.60;;;10.20;93.70;;;;;;5042499;28;20104;-45
2021/12/07 06:35:56;;;;;;;95.47;44.88;;;10.20;93.70;;;;;;5050437;28;20446;-33
2021/12/07 06:38:33;;;;;;;101.53;48.13;;;10.20;93.70;;;;;;5051602;28;20053;-34
2021/12/07 06:41:00;;;;;;;92.38;47.58;;;10.20;93.70;;;;;;5037255;28;20365;-45
2021/12/07 06:43:26;;;;;;;150.60;84.93;;;10.20;93.80;;;;;;5036687;28;20532;-45
2021/12/07 06:45:52;;;;;;;124.63;61.97;;;10.20;93.90;;;;;;5036841;28;20041;-34
2021/12/07 06:48:19;;;;;;;116.28;57.42;;;10.20;93.90;;;;;;5036472;28;20037;-45
2021/12/07 06:50:45;;;;;;;118.43;60.58;;;10.20;93.90;;;;;;5036166;28;20053;-34
2021/12/07 06:53:11;;;;;;;133.18;65.18;;;10.30;94.00;;;;;;5036768;28;20096;-45
2021/12/07 06:55:37;;;;;;;148.75;77.03;;;10.30;93.90;;;;;;5035947;28;20029;-33
2021/12/07 06:58:04;;;;;;;130.45;74.95;;;10.30;94.00;;;;;;5036790;28;20079;-38
2021/12/07 07:00:30;;;;;;;99.68;53.28;;;10.30;94.00;;;;;;5036616;28;20029;-34
2021/12/07 07:02:56;;;;;;;80.90;45.05;;;10.30;93.90;;;;;;5036609;28;20029;-45
2021/12/07 07:05:22;;;;;;;81.63;44.10;;;10.30;93.90;;;;;;5035429;28;20440;-46
2021/12/07 07:07:48;;;;;;;98.72;51.75;;;10.30;93.90;;;;;;5036372;28;20374;-35
2021/12/07 07:10:16;;;;;;;103.80;57.25;;;10.30;93.90;;;;;;5036392;28;20037;-46
2021/12/07 07:12:43;;;;;;;97.88;53.97;;;10.30;93.90;;;;;;5036190;28;20033;-46
2021/12/07 07:15:09;;;;;;;109.78;58.28;;;10.30;93.90;;;;;;5036206;28;20108;-46
2021/12/07 07:17:36;;;;;;;86.75;47.78;;;10.40;93.90;;;;;;5035988;28;20037;-46
2021/12/07 07:20:04;;;;;;;104.13;57.75;;;10.40;94.00;;;;;;5036245;28;20044;-46
2021/12/07 07:22:30;;;;;;;95.25;53.47;;;10.40;94.20;;;;;;5036058;28;20035;-34
2021/12/07 07:24:56;;;;;;;96.40;57.95;;;10.40;94.20;;;;;;5047253;28;20041;-46
2021/12/07 07:27:22;;;;;;;122.38;67.30;;;10.50;94.20;;;;;;5035947;28;20041;-34
2021/12/07 07:29:47;;;;;;;260.95;168.07;;;10.50;94.20;;;;;;5035499;28;20065;-34
2021/12/07 07:32:13;;;;;;;172.55;98.03;;;10.60;94.30;;;;;;5034729;28;20031;-35
2021/12/07 07:34:39;;;;;;;131.73;66.38;;;10.50;94.30;;;;;;5036020;28;20178;-36
2021/12/07 07:37:05;;;;;;;144.40;70.68;;;10.60;94.40;;;;;;5036087;28;20025;-46
2021/12/07 07:39:32;;;;;;;106.53;54.38;;;10.60;94.30;;;;;;5035774;28;20047;-46
2021/12/07 07:41:57;;;;;;;114.82;54.38;;;10.70;94.30;;;;;;5035848;28;20112;-45
2021/12/07 07:44:23;;;;;;;117.80;57.03;;;10.70;94.30;;;;;;5036106;28;20116;-44
2021/12/07 07:46:49;;;;;;;129.13;60.50;;;10.70;94.20;;;;;;5036036;28;20075;-34
2021/12/07 07:49:14;;;;;;;110.18;55.22;;;10.80;94.20;;;;;;5035532;28;20050;-33
2021/12/07 07:51:40;;;;;;;151.55;69.03;;;10.80;94.20;;;;;;5035567;28;20026;-34
2021/12/07 07:54:06;;;;;;;149.27;67.60;;;10.80;94.10;;;;;;5035532;28;20036;-46
2021/12/07 07:56:33;;;;;;;140.05;67.57;;;10.90;94.10;;;;;;5035803;28;20040;-45
2021/12/07 07:58:59;;;;;;;155.82;67.50;;;10.90;94.10;;;;;;5035782;28;20080;-33
2021/12/07 08:01:30;;;;;;;150.68;69.47;;;10.90;94.00;;;;;;5035708;28;20109;-45
2021/12/07 08:03:56;;;;;;;133.35;63.17;;;10.90;94.00;;;;;;5035583;28;20033;-45
2021/12/07 08:06:22;;;;;;;132.85;60.97;;;10.90;93.90;;;;;;5036851;28;20025;-33
2021/12/07 08:08:48;;;;;;;128.63;58.78;;;11.00;93.80;;;;;;5039447;28;20352;-45
2021/12/07 08:11:13;;;;;;;120.97;56.25;;;11.00;93.90;;;;;;5039454;28;20032;-32
2021/12/07 08:13:40;;;;;;;120.88;57.08;;;11.00;93.90;;;;;;5039285;28;20414;-32
2021/12/07 08:16:15;;;;;;;137.50;66.25;;;11.00;93.90;;;;;;5043124;28;20037;-37
2021/12/07 08:18:41;;;;;;;112.53;60.88;;;11.10;93.90;;;;;;5048512;28;20342;-34
2021/12/07 08:21:08;;;;;;;130.32;71.25;;;11.10;93.90;;;;;;5049082;28;20034;-33
2021/12/07 08:23:35;;;;;;;124.25;67.22;;;11.10;93.90;;;;;;5046918;28;20021;-33
2021/12/07 08:26:02;;;;;;;131.38;81.82;;;11.10;93.80;;;;;;5048631;28;20527;-45
2021/12/07 08:28:27;;;;;;;101.65;61.63;;;11.20;93.70;;;;;;5048715;28;20026;-45
2021/12/07 08:30:53;;;;;;;90.97;52.20;;;11.20;93.60;;;;;;5047313;28;20040;-45
2021/12/07 08:33:19;;;;;;;263.00;105.15;;;11.20;93.40;;;;;;5048317;28;20039;-35
2021/12/07 08:35:44;;;;;;;214.05;90.32;;;11.20;93.20;;;;;;5048443;28;20033;-47
2021/12/07 08:38:10;;;;;;;137.60;64.47;;;11.20;93.10;;;;;;5041022;28;20432;-45
2021/12/07 08:40:39;;;;;;;64.43;34.55;;;11.20;93.00;;;;;;5047923;28;20037;-33
2021/12/07 08:43:06;;;;;;;58.67;32.17;;;11.20;92.60;;;;;;5047660;28;20071;-34
2021/12/07 08:45:32;;;;;;;77.47;48.22;;;11.10;92.40;;;;;;5047242;28;20021;-45
2021/12/07 08:47:58;;;;;;;81.57;48.30;;;11.10;92.50;;;;;;5047585;28;20021;-45
2021/12/07 08:50:27;;;;;;;120.38;63.05;;;11.10;92.60;;;;;;5048218;28;20087;-45
2021/12/07 08:52:57;;;;;;;123.45;65.68;;;11.00;92.70;;;;;;5047220;28;20305;-45
2021/12/07 09:00:55;;;;;;;107.75;56.03;;;11.00;93.00;;;;;;5038219;28;20322;-33
2021/12/07 09:03:21;;;;;;;142.65;75.78;;;11.00;93.10;;;;;;5037834;28;20061;-45
2021/12/07 09:05:47;;;;;;;124.57;60.63;;;11.00;93.10;;;;;;5058005;28;20045;-45
2021/12/07 09:08:13;;;;;;;137.18;66.03;;;11.00;93.20;;;;;;5057603;28;20036;-45
2021/12/07 09:10:38;;;;;;;111.25;60.65;;;11.00;93.40;;;;;;5057749;28;20051;-45
2021/12/07 09:13:05;;;;;;;112.32;58.10;;;11.00;93.50;;;;;;5048602;28;20029;-36
2021/12/07 09:15:31;;;;;;;109.50;56.50;;;11.00;93.50;;;;;;5045774;28;20387;-33
2021/12/07 09:17:57;;;;;;;128.88;58.65;;;11.00;93.50;;;;;;5039369;28;20410;-45
2021/12/07 09:20:22;;;;;;;222.48;137.63;;;11.00;93.50;;;;;;5038401;28;20041;-33
2021/12/07 09:22:48;;;;;;;197.45;124.40;;;11.00;93.40;;;;;;5038198;28;20021;-45
2021/12/07 09:25:16;;;;;;;158.73;87.07;;;11.00;93.50;;;;;;5038295;28;20034;-45
2021/12/07 09:27:42;;;;;;;144.25;74.90;;;11.00;93.60;;;;;;5039507;28;20029;-45
2021/12/07 09:30:10;;;;;;;176.95;87.60;;;11.10;93.70;;;;;;5047504;28;20040;-45
2021/12/07 09:32:36;;;;;;;156.70;80.38;;;11.00;93.80;;;;;;5047279;28;20021;-45
2021/12/07 09:35:04;;;;;;;133.05;76.38;;;11.10;93.90;;;;;;5045706;28;20032;-45
2021/12/07 09:37:30;;;;;;;79.50;39.10;;;11.10;93.80;;;;;;5046928;28;20056;-33
2021/12/07 09:39:55;;;;;;;60.75;31.48;;;11.10;93.40;;;;;;5040381;28;20037;-45
2021/12/07 09:42:21;;;;;;;62.58;33.13;;;11.10;93.00;;;;;;5036654;28;20163;-45
2021/12/07 09:44:47;;;;;;;79.75;35.92;;;11.00;92.70;;;;;;5038914;28;20033;-32
2021/12/07 09:47:13;;;;;;;57.75;29.30;;;11.00;92.50;;;;;;5046654;28;20096;-33
2021/12/07 09:49:38;;;;;;;40.85;24.58;;;11.00;92.40;;;;;;5046486;28;20052;-45
2021/12/07 09:52:05;;;;;;;33.05;20.77;;;11.00;92.40;;;;;;5046594;28;20053;-45
2021/12/07 09:54:31;;;;;;;33.60;20.40;;;10.90;92.30;;;;;;5045402;28;20122;-45
2021/12/07 09:56:56;;;;;;;34.10;19.77;;;10.90;92.10;;;;;;5047130;28;20401;-45
2021/12/07 09:59:22;;;;;;;35.15;17.27;;;10.80;91.80;;;;;;5045924;28;20120;-45
2021/12/07 10:01:49;;;;;;;27.40;15.82;;;10.80;91.70;;;;;;5045719;28;20362;-45
2021/12/07 10:04:15;;;;;;;41.13;18.98;;;10.80;91.50;;;;;;5047605;28;20451;-45
2021/12/07 10:06:41;;;;;;;50.90;20.50;;;10.70;91.40;;;;;;5046306;28;20116;-33
2021/12/07 10:09:07;;;;;;;42.85;21.92;;;10.60;91.40;;;;;;5046581;28;20124;-34
2021/12/07 10:11:34;;;;;;;57.17;26.83;;;10.60;91.50;;;;;;5046311;28;20034;-32
2021/12/07 10:13:59;;;;;;;48.05;23.17;;;10.50;91.50;;;;;;5044808;28;20116;-34
2021/12/07 10:16:26;;;;;;;67.20;20.25;;;10.50;91.40;;;;;;5046828;28;20104;-33
2021/12/07 10:18:52;;;;;;;70.20;20.75;;;10.40;91.20;;;;;;5039010;28;20299;-45
2021/12/07 10:21:27;;;;;;;144.45;26.80;;;10.40;91.20;;;;;;5038888;28;20040;-34
2021/12/07 10:24:07;;;;;;;47.30;18.35;;;10.30;91.00;;;;;;5049149;28;20348;-33
2021/12/07 10:26:40;;;;;;;35.88;16.98;;;10.20;91.00;;;;;;5046224;28;20398;-33
2021/12/07 10:29:16;;;;;;;41.88;19.05;;;10.20;91.10;;;;;;5044663;28;20127;-36
2021/12/07 10:31:49;;;;;;;36.17;17.63;;;10.10;91.10;;;;;;5046946;28;20028;-34
2021/12/07 10:34:24;;;;;;;44.28;19.30;;;10.10;91.20;;;;;;5050681;28;20032;-36
2021/12/07 10:36:52;;;;;;;42.83;16.58;;;10.00;91.30;;;;;;5045703;28;20306;-35
2021/12/07 10:39:19;;;;;;;33.70;18.23;;;10.00;91.40;;;;;;5044851;28;20029;-33
2021/12/07 10:41:57;;;;;;;40.72;22.52;;;9.90;91.40;;;;;;5043052;28;20057;-33
2021/12/07 10:44:34;;;;;;;37.38;20.23;;;9.90;91.40;;;;;;5041568;28;20036;-34
2021/12/07 10:47:02;;;;;;;32.30;18.08;;;9.90;91.50;;;;;;5045382;28;20113;-33
2021/12/07 10:49:32;;;;;;;44.55;23.38;;;9.90;91.70;;;;;;5044080;28;20191;-34
2021/12/07 10:52:18;;;;;;;67.15;24.77;;;9.90;91.60;;;;;;5040195;28;20036;-45
2021/12/07 10:54:52;;;;;;;37.20;20.80;;;9.90;91.60;;;;;;5045932;28;20330;-32
2021/12/07 10:57:38;;;;;;;53.80;26.25;;;9.90;91.70;;;;;;5040639;28;20418;-34
2021/12/07 11:00:28;;;;;;;31.95;17.63;;;9.90;91.60;;;;;;5049538;28;20071;-34
2021/12/07 11:02:59;;;;;;;46.88;16.58;;;9.90;91.80;;;;;;5045136;28;20436;-33
2021/12/07 11:05:30;;;;;;;40.78;21.92;;;9.90;91.50;;;;;;5044045;28;20425;-33
2021/12/07 11:07:56;;;;;;;;;;;9.90;91.40;;;;;;5049909;28;20422;-33
2021/12/07 11:10:32;;;;;;;28.33;19.15;;;9.90;91.40;;;;;;5055233;28;20011;-33
2021/12/07 11:13:11;;;;;;;36.85;21.80;;;9.80;91.40;;;;;;5055354;28;20309;-33
2021/12/07 11:16:00;;;;;;;31.58;19.40;;;9.80;91.40;;;;;;5052484;28;20063;-34
2021/12/07 11:18:30;;;;;;;34.83;21.27;;;9.80;91.30;;;;;;5039318;28;20033;-32
2021/12/07 11:20:59;;;;;;;46.72;26.95;;;9.70;91.40;;;;;;5041051;28;20038;-34
2021/12/07 11:23:38;;;;;;;48.97;28.52;;;9.70;91.50;;;;;;5035255;28;20081;-35
2021/12/07 11:31:51;;;;;;;19.50;13.00;;;9.70;91.50;;;;;;5045507;28;20082;-33
2021/12/07 11:34:23;;;;;;;37.53;26.33;;;9.70;91.50;;;;;;5037784;28;20326;-33
2021/12/07 11:37:01;;;;;;;33.53;22.40;;;9.70;91.40;;;;;;5043802;28;20036;-33
2021/12/07 11:39:54;;;;;;;24.77;16.50;;;9.70;91.40;;;;;;5043446;28;20459;-45
2021/12/07 11:42:30;;;;;;;18.60;11.52;;;9.70;91.40;;;;;;5044642;28;20029;-44
2021/12/07 11:45:03;;;;;;;22.77;15.70;;;9.70;91.30;;;;;;5044806;28;20038;-45
2021/12/07 11:47:42;;;;;;;52.60;34.80;;;9.70;91.20;;;;;;5044949;28;20029;-45
2021/12/07 11:50:42;;;;;;;120.53;81.32;;;9.70;91.40;;;;;;5042999;28;20054;-45
2021/12/07 11:53:25;;;;;;;104.35;68.85;;;9.70;91.50;;;;;;5044023;28;20054;-45
2021/12/07 11:55:54;;;;;;;63.70;42.95;;;9.70;91.90;;;;;;5044028;28;20373;-45
2021/12/07 11:58:20;;;;;;;90.72;54.92;;;9.80;92.00;;;;;;5043513;28;20437;-45
2021/12/07 12:00:49;;;;;;;82.68;46.78;;;9.80;92.30;;;;;;5045366;28;20083;-45
2021/12/07 12:03:17;;;;;;;66.97;37.65;;;9.80;92.60;;;;;;5044090;28;20108;-45
2021/12/07 12:05:46;;;;;;;53.95;32.92;;;9.90;93.00;;;;;;5043399;28;20032;-45
2021/12/07 12:08:14;;;;;;;82.82;48.60;;;9.90;93.20;;;;;;5044887;28;20037;-45
2021/12/07 12:10:43;;;;;;;172.27;107.10;;;10.00;93.40;;;;;;5045137;28;20136;-45
2021/12/07 12:13:40;;;;;;;186.70;114.45;;;10.10;93.90;;;;;;5043511;28;20115;-45
2021/12/07 12:16:21;;;;;;;126.32;74.18;;;10.20;94.10;;;;;;5044662;28;20029;-45
2021/12/07 12:19:06;;;;;;;80.72;47.40;;;10.30;94.10;;;;;;5044307;28;20030;-45
2021/12/07 12:21:47;;;;;;;57.08;35.88;;;10.40;94.10;;;;;;5044943;28;20317;-45
2021/12/07 12:24:19;;;;;;;43.83;24.60;;;10.50;93.90;;;;;;5039767;28;20124;-45
2021/12/07 12:26:45;;;;;;;34.78;19.63;;;10.50;93.30;;;;;;5034753;28;20104;-45
2021/12/07 12:29:22;;;;;;;33.88;21.95;;;10.50;92.90;;;;;;5034588;28;20032;-45
2021/12/07 12:31:52;;;;;;;37.67;22.40;;;10.50;92.30;;;;;;5043552;28;20029;-45
2021/12/07 12:34:23;;;;;;;41.53;24.92;;;10.50;91.90;;;;;;5043258;28;20030;-45
2021/12/07 12:36:56;;;;;;;48.47;29.63;;;10.50;91.40;;;;;;5043876;28;20064;-45
2021/12/07 12:39:59;;;;;;;56.40;33.75;;;10.40;91.10;;;;;;5043299;28;20072;-33
2021/12/07 12:42:30;;;;;;;75.25;39.35;;;10.30;90.90;;;;;;5040894;28;20083;-45
2021/12/07 12:45:25;;;;;;;66.45;39.72;;;10.20;90.80;;;;;;5033077;28;20029;-32
2021/12/07 12:48:17;;;;;;;52.72;31.63;;;10.10;90.70;;;;;;5041779;28;20482;-45
2021/12/07 12:50:43;;;;;;;53.83;33.17;;;10.00;90.80;;;;;;5044475;28;20044;-33
2021/12/07 12:53:23;;;;;;;56.00;33.90;;;9.90;90.90;;;;;;5043729;28;20328;-34
2021/12/07 12:55:52;;;;;;;56.47;32.92;;;9.90;90.80;;;;;;5047107;28;20060;-33
2021/12/07 12:58:31;;;;;;;59.17;32.42;;;9.80;90.90;;;;;;5052577;28;20052;-35
2021/12/07 13:01:05;;;;;;;66.47;36.60;;;9.80;90.90;;;;;;5047530;28;20045;-33
2021/12/07 13:03:40;;;;;;;53.00;31.77;;;9.70;90.90;;;;;;5045849;28;20057;-33
2021/12/07 13:06:06;;;;;;;57.72;32.08;;;9.70;91.00;;;;;;5048407;28;20156;-33
2021/12/07 13:08:32;;;;;;;57.97;28.27;;;9.70;90.90;;;;;;5046118;28;20125;-34
2021/12/07 13:11:03;;;;;;;53.42;27.50;;;9.60;90.70;;;;;;5048518;28;20021;-45
2021/12/07 13:13:35;;;;;;;71.85;32.67;;;9.60;90.70;;;;;;5046778;28;20116;-45
2021/12/07 13:16:16;;;;;;;54.08;29.15;;;9.50;90.40;;;;;;5044211;28;20414;-34
2021/12/07 13:18:43;;;;;;;;;;;9.50;90.30;;;;;;5047674;28;20324;-37
2021/12/07 13:21:28;;;;;;;57.60;23.63;;;9.40;90.40;;;;;;5045787;28;19920;-34
2021/12/07 13:24:02;;;;;;;35.17;16.92;;;9.30;90.40;;;;;;5046168;28;20030;-33
2021/12/07 13:26:37;;;;;;;37.05;17.85;;;9.20;90.60;;;;;;5046313;28;20037;-33
2021/12/07 13:29:09;;;;;;;43.17;16.58;;;9.20;90.60;;;;;;5046866;28;20410;-45
2021/12/07 13:31:42;;;;;;;52.92;18.08;;;9.10;90.70;;;;;;5046003;28;20029;-34
2021/12/07 13:34:10;;;;;;;61.25;18.35;;;9.10;90.80;;;;;;5045292;28;20025;-33
2021/12/07 13:36:56;;;;;;;101.82;19.77;;;9.00;90.70;;;;;;5054005;28;20029;-34
2021/12/07 13:39:23;;;;;;;60.22;17.00;;;9.00;90.60;;;;;;5057075;28;20108;-45
2021/12/07 13:42:06;;;;;;;100.60;31.83;;;8.90;90.60;;;;;;5051332;28;20033;-44
2021/12/07 13:45:05;;;;;;;72.20;27.52;;;8.90;90.60;;;;;;5036763;28;20453;-33
2021/12/07 13:47:43;;;;;;;40.92;17.92;;;8.80;90.50;;;;;;5041283;28;20106;-33
2021/12/07 13:50:16;;;;;;;45.30;24.67;;;8.80;90.70;;;;;;5050541;28;20501;-44
2021/12/07 13:52:49;;;;;;;95.63;34.63;;;8.70;90.70;;;;;;5045173;28;20026;-33
2021/12/07 13:55:19;;;;;;;70.13;26.95;;;8.70;90.80;;;;;;5048068;28;20025;-45
2021/12/07 13:57:48;;;;;;;37.72;18.92;;;8.60;90.80;;;;;;5042873;28;20037;-45
2021/12/07 14:00:21;;;;;;;62.65;23.20;;;8.60;90.80;;;;;;5047049;28;20033;-35
2021/12/07 14:02:56;;;;;;;26.27;10.95;;;8.60;90.80;;;;;;5037804;28;20034;-33
2021/12/07 14:05:29;;;;;;;23.33;13.98;;;8.40;90.60;;;;;;5037481;28;20037;-33
2021/12/07 14:07:58;;;;;;;23.02;13.13;;;8.40;90.60;;;;;;5046605;28;20036;-45
2021/12/07 14:10:27;;;;;;;71.72;32.42;;;8.30;90.60;;;;;;5045353;28;20022;-33
2021/12/07 14:12:54;;;;;;;69.18;30.60;;;8.30;90.60;;;;;;5046126;28;20021;-45
2021/12/07 14:15:26;;;;;;;25.77;13.38;;;8.20;90.80;;;;;;5046429;28;20412;-33
2021/12/07 14:17:55;;;;;;;72.55;30.83;;;8.20;91.00;;;;;;5045193;28;20422;-45
2021/12/07 14:20:40;;;;;;;16.63;9.68;;;8.10;91.00;;;;;;5045738;28;20032;-45
2021/12/07 14:23:23;;;;;;;19.98;10.35;;;8.10;90.70;;;;;;5046622;28;20033;-33
2021/12/07 14:25:55;;;;;;;14.48;8.90;;;8.00;90.70;;;;;;5051913;28;20036;-45
2021/12/07 14:28:31;;;;;;;21.10;11.63;;;8.00;90.90;;;;;;5045832;28;20064;-34
2021/12/07 14:31:06;;;;;;;29.25;16.25;;;7.90;90.80;;;;;;5046942;28;20033;-33
2021/12/07 14:33:55;;;;;;;15.88;8.15;;;7.90;91.00;;;;;;5046166;28;20029;-32
2021/12/07 14:36:27;;;;;;;16.55;10.48;;;7.80;90.80;;;;;;5050328;28;20036;-44
2021/12/07 14:38:56;;;;;;;11.07;7.45;;;7.80;90.90;;;;;;5050556;28;20020;-45
2021/12/07 14:41:25;;;;;;;21.38;11.15;;;7.70;90.70;;;;;;5044544;28;20195;-45
2021/12/07 14:43:53;;;;;;;16.25;9.93;;;7.70;90.70;;;;;;5044743;28;20206;-36